Time;durP1;ratioP1;P1;durP2;ratioP2;P2;SDS_P1;SDS_P2;PMS_P1;PMS_P2;Temp;Humidity;BMP_temperature;BMP_pressure;BME280_temperature;BME280_humidity;BME280_pressure;Samples;Min_cycle;Max_cycle;Signal;HPM_P1;HPM_P2
2022/07/17 00:02:33;;;;;;;7.60;4.10;;;11.40;62.20;;;;;;5026245;28;20499;-85
2022/07/17 00:11:13;;;;;;;9.43;6.00;;;11.30;64.90;;;;;;5011601;28;20467;-85
2022/07/17 00:13:51;;;;;;;9.77;5.50;;;11.30;65.60;;;;;;5025595;28;20981;-85
2022/07/17 00:20:47;;;;;;;;;;;;;;;;;;;;;
2022/07/17 00:48:15;;;;;;;;;;;;;;;;;;;;;
2022/07/17 00:51:38;;;;;;;;;;;;;;;;;;;;;
2022/07/17 01:18:43;;;;;;;;;;;;;;;;;;;;;
2022/07/17 01:31:48;;;;;;;94.50;91.00;;;10.90;80.10;;;;;;4936902;28;20463;-85
2022/07/17 01:34:38;;;;;;;104.67;100.80;;;10.90;81.10;;;;;;4996011;28;20480;-85
2022/07/17 01:37:21;;;;;;;97.27;93.30;;;10.80;81.20;;;;;;5025196;28;20556;-85
2022/07/17 01:53:59;;;;;;;;;;;;;;;;;;;;;
2022/07/17 02:24:42;;;;;;;;;;;;;;;;;;;;;
2022/07/17 02:52:12;;;;;;;;;;;;;;;;;;;;;
2022/07/17 03:01:57;;;;;;;341.53;329.07;;;9.20;99.90;;;;;;4947202;29;20491;-85
2022/07/17 03:18:19;;;;;;;;;;;;;;;;;;;;;
2022/07/17 03:34:53;;;;;;;;;;;;;;;;;;;;;
2022/07/17 04:25:44;;;;;;;284.20;274.80;;;9.10;99.90;;;;;;4919910;29;20539;-85
2022/07/17 04:37:56;;;;;;;318.93;307.40;;;9.40;99.90;;;;;;4984351;28;20462;-86
2022/07/17 04:40:23;;;;;;;358.73;345.53;;;9.50;99.90;;;;;;5023284;28;20492;-84
2022/07/17 04:42:54;;;;;;;387.83;373.47;;;9.80;99.90;;;;;;5025750;28;20548;-86
2022/07/17 04:45:21;;;;;;;329.50;317.77;;;9.90;99.90;;;;;;5023588;28;20449;-84
2022/07/17 04:58:40;;;;;;;289.20;278.80;;;10.00;99.90;;;;;;4938813;28;20449;-86
2022/07/17 05:28:45;;;;;;;307.23;295.83;;;11.70;99.90;;;;;;4872896;23;20501;-84
2022/07/17 05:31:12;;;;;;;129.63;125.03;;;12.00;99.90;;;;;;4985388;28;20471;-85
2022/07/17 06:10:01;;;;;;;10.83;2.70;;;19.60;40.10;;;;;;4965182;28;20461;-83
2022/07/17 06:12:31;;;;;;;7.67;2.80;;;20.30;35.60;;;;;;4979552;28;20630;-85
2022/07/17 06:15:29;;;;;;;7.27;3.07;;;20.60;31.00;;;;;;5026291;28;20907;-84
2022/07/17 06:17:56;;;;;;;7.27;2.53;;;20.90;30.70;;;;;;5009278;28;20560;-85
2022/07/17 06:20:22;;;;;;;14.13;2.80;;;21.40;31.80;;;;;;5040916;28;20896;-83
2022/07/17 06:22:49;;;;;;;8.37;3.13;;;21.50;28.30;;;;;;5028624;28;20463;-83
2022/07/17 06:25:16;;;;;;;8.37;2.60;;;21.60;28.20;;;;;;5018429;28;20831;-83
2022/07/17 06:27:44;;;;;;;8.93;2.90;;;21.40;27.00;;;;;;5020194;28;20445;-83
2022/07/17 06:30:13;;;;;;;9.00;2.90;;;21.50;26.10;;;;;;5020945;28;20450;-83
2022/07/17 06:32:39;;;;;;;7.33;2.40;;;21.60;25.50;;;;;;5022517;28;20663;-83
2022/07/17 06:35:08;;;;;;;11.27;3.07;;;21.50;26.10;;;;;;5041049;28;20468;-83
2022/07/17 06:37:35;;;;;;;8.10;3.07;;;21.60;27.10;;;;;;5039389;28;20482;-83
2022/07/17 06:40:02;;;;;;;9.20;2.53;;;21.60;25.60;;;;;;5019816;28;20450;-84
2022/07/17 06:42:29;;;;;;;6.47;2.73;;;21.60;24.20;;;;;;5022878;28;20478;-83
2022/07/17 06:44:58;;;;;;;9.93;2.30;;;21.80;24.90;;;;;;5042161;28;20445;-85
2022/07/17 06:47:24;;;;;;;8.80;3.03;;;22.20;24.40;;;;;;5042365;28;20450;-85
2022/07/17 06:49:53;;;;;;;13.40;3.00;;;22.20;22.40;;;;;;5023448;28;20492;-84
2022/07/17 06:52:28;;;;;;;6.20;2.70;;;21.80;21.70;;;;;;5021088;28;20571;-86
2022/07/17 06:54:54;;;;;;;7.20;2.63;;;21.50;20.80;;;;;;5019662;28;20532;-84
2022/07/17 06:57:28;;;;;;;9.50;2.73;;;21.70;21.00;;;;;;5035472;28;20481;-85
2022/07/17 06:59:55;;;;;;;8.80;2.53;;;21.90;20.30;;;;;;5040161;28;20458;-84
2022/07/17 07:02:23;;;;;;;9.00;4.43;;;22.00;19.40;;;;;;5045517;28;20984;-83
2022/07/17 07:04:50;;;;;;;8.25;2.90;;;22.20;18.90;;;;;;5045961;28;20483;-85
2022/07/17 07:07:17;;;;;;;7.17;2.77;;;22.30;18.20;;;;;;5045981;28;20525;-84
2022/07/17 07:09:44;;;;;;;8.80;2.33;;;22.20;18.20;;;;;;5035920;28;20477;-84
2022/07/17 07:12:13;;;;;;;7.03;2.10;;;22.50;16.60;;;;;;5024347;28;20517;-84
2022/07/17 07:14:40;;;;;;;8.07;2.83;;;22.80;17.80;;;;;;5023699;28;20464;-84
2022/07/17 07:17:06;;;;;;;7.17;2.30;;;23.00;19.30;;;;;;5022661;28;20475;-84
2022/07/17 07:19:35;;;;;;;28.37;15.97;;;23.00;16.90;;;;;;5040320;28;20456;-85
2022/07/17 07:22:01;;;;;;;8.87;2.47;;;22.90;16.80;;;;;;5029720;28;20494;-85
2022/07/17 07:24:28;;;;;;;8.07;2.50;;;22.40;13.90;;;;;;5021778;28;20461;-85
2022/07/17 07:26:57;;;;;;;5.97;2.03;;;22.70;14.40;;;;;;5031336;28;20452;-84
2022/07/17 07:29:27;;;;;;;6.97;2.53;;;23.20;13.80;;;;;;5020282;28;20480;-84
2022/07/17 07:31:54;;;;;;;9.67;3.07;;;22.90;12.30;;;;;;5023610;28;20937;-84
2022/07/17 07:34:21;;;;;;;6.07;2.60;;;23.40;11.40;;;;;;5024958;28;20453;-85
2022/07/17 07:36:49;;;;;;;11.00;2.60;;;23.70;10.60;;;;;;5025277;28;20473;-85
2022/07/17 07:39:16;;;;;;;9.23;3.37;;;23.50;9.50;;;;;;5043596;28;20820;-85
2022/07/17 07:41:42;;;;;;;7.10;2.70;;;23.00;9.80;;;;;;5045275;28;20518;-85
2022/07/17 07:44:09;;;;;;;7.30;2.27;;;23.10;10.70;;;;;;5028353;28;20469;-85
2022/07/17 07:46:36;;;;;;;8.17;2.30;;;23.10;8.30;;;;;;5039248;28;20444;-85
2022/07/17 07:49:03;;;;;;;10.47;2.80;;;23.40;9.80;;;;;;5045259;28;20459;-84
2022/07/17 07:51:30;;;;;;;5.60;2.00;;;23.60;9.40;;;;;;5031487;28;20475;-85
2022/07/17 07:53:58;;;;;;;7.60;2.10;;;24.10;7.00;;;;;;5025447;28;20476;-84
2022/07/17 07:56:25;;;;;;;9.80;2.73;;;24.40;6.50;;;;;;5038118;28;20488;-85
2022/07/17 07:58:52;;;;;;;6.47;2.00;;;24.40;7.70;;;;;;5045725;28;20479;-85
2022/07/17 08:01:18;;;;;;;4.90;1.80;;;24.00;4.70;;;;;;5036066;28;20460;-85
2022/07/17 08:03:45;;;;;;;7.57;2.23;;;23.90;6.10;;;;;;5044376;28;20441;-83
2022/07/17 08:06:14;;;;;;;8.57;2.30;;;24.00;4.60;;;;;;5036359;28;20540;-86
2022/07/17 08:08:41;;;;;;;7.67;1.87;;;24.60;4.60;;;;;;5023718;28;20457;-85
2022/07/17 08:11:10;;;;;;;6.03;1.83;;;24.90;1.80;;;;;;5030153;28;21022;-85
2022/07/17 08:13:37;;;;;;;13.90;2.57;;;24.90;3.60;;;;;;5044217;28;20507;-86
2022/07/17 08:16:04;;;;;;;6.20;1.80;;;24.80;1.20;;;;;;5036903;28;20453;-85
2022/07/17 08:18:30;;;;;;;7.27;1.63;;;25.10;1.90;;;;;;5023550;28;20540;-85
2022/07/17 08:20:57;;;;;;;7.10;1.80;;;25.30;1.00;;;;;;5027879;28;20456;-85
2022/07/17 08:23:24;;;;;;;5.20;1.50;;;25.60;1.00;;;;;;5034928;28;20483;-85
2022/07/17 08:25:51;;;;;;;6.50;1.60;;;25.80;1.00;;;;;;5033229;28;20488;-85
2022/07/17 08:28:22;;;;;;;9.60;1.60;;;25.90;1.00;;;;;;5035123;28;20427;-87
2022/07/17 08:30:49;;;;;;;8.20;1.87;;;25.50;1.00;;;;;;5031858;28;20866;-87
2022/07/17 08:33:17;;;;;;;8.73;2.00;;;25.50;1.00;;;;;;5014518;28;20535;-87
2022/07/17 08:35:44;;;;;;;6.03;1.83;;;25.30;1.00;;;;;;5015222;28;20834;-85
2022/07/17 08:38:11;;;;;;;6.27;1.57;;;25.40;1.00;;;;;;5033635;28;20484;-86
2022/07/17 08:40:39;;;;;;;8.33;1.67;;;25.60;1.00;;;;;;5033722;28;20444;-89
2022/07/17 08:43:08;;;;;;;6.63;1.60;;;25.90;1.00;;;;;;5013757;28;20531;-89
2022/07/17 08:45:36;;;;;;;6.63;1.70;;;25.50;1.00;;;;;;5023738;28;20452;-87
2022/07/17 08:48:03;;;;;;;5.17;1.50;;;25.90;1.00;;;;;;5014948;28;20452;-88
2022/07/17 08:50:33;;;;;;;6.50;1.60;;;25.60;1.00;;;;;;5017156;28;20473;-88
2022/07/17 08:53:01;;;;;;;4.97;1.57;;;25.90;1.00;;;;;;5027457;28;20465;-88
2022/07/17 08:55:28;;;;;;;7.30;2.13;;;26.50;1.00;;;;;;5013088;28;20543;-87
2022/07/17 08:57:56;;;;;;;5.13;1.50;;;26.60;1.00;;;;;;5013867;28;20476;-86
2022/07/17 09:00:24;;;;;;;9.13;2.20;;;26.80;1.00;;;;;;5013564;28;20450;-87
2022/07/17 09:02:57;;;;;;;8.43;1.80;;;27.00;1.00;;;;;;5013988;28;20505;-86
2022/07/17 09:05:25;;;;;;;10.87;2.40;;;27.30;1.00;;;;;;5015814;28;20537;-87
2022/07/17 09:07:52;;;;;;;6.17;2.00;;;27.40;1.00;;;;;;5033008;28;20539;-87
2022/07/17 09:10:19;;;;;;;10.90;3.40;;;27.80;1.00;;;;;;5033441;28;20828;-87
2022/07/17 09:12:46;;;;;;;6.47;2.47;;;27.70;1.00;;;;;;5016642;28;20473;-85
2022/07/17 09:15:18;;;;;;;7.07;2.30;;;27.70;1.00;;;;;;5017605;28;20457;-85
2022/07/17 09:17:52;;;;;;;6.30;2.20;;;27.90;1.00;;;;;;5037385;28;20478;-84
2022/07/17 09:20:21;;;;;;;7.37;2.70;;;28.20;1.00;;;;;;5036554;28;20452;-84
2022/07/17 09:22:57;;;;;;;6.80;2.73;;;28.60;1.00;;;;;;5014345;28;20489;-85
2022/07/17 09:25:36;;;;;;;9.30;3.13;;;27.90;1.00;;;;;;5013822;28;20514;-85
2022/07/17 09:28:04;;;;;;;7.10;2.23;;;27.60;1.00;;;;;;5012621;28;20453;-85
2022/07/17 09:30:32;;;;;;;7.37;2.63;;;28.10;1.00;;;;;;5014184;28;20457;-85
2022/07/17 09:32:59;;;;;;;8.60;2.17;;;28.60;1.00;;;;;;5034279;28;20533;-85
2022/07/17 09:35:27;;;;;;;6.90;2.10;;;28.50;1.00;;;;;;5034578;28;20892;-85
2022/07/17 09:37:55;;;;;;;11.53;2.83;;;28.70;1.00;;;;;;5038231;28;20483;-85
2022/07/17 09:43:08;;;;;;;6.80;2.53;;;29.20;1.00;;;;;;5025360;28;20522;-85
2022/07/17 09:45:36;;;;;;;8.00;2.17;;;29.50;1.00;;;;;;5027447;28;20457;-86
2022/07/17 09:48:03;;;;;;;9.73;2.80;;;29.30;1.00;;;;;;5014651;28;20446;-86
2022/07/17 09:50:33;;;;;;;7.43;2.10;;;29.80;1.00;;;;;;5013602;28;20944;-86
2022/07/17 09:53:01;;;;;;;11.33;3.00;;;30.30;1.00;;;;;;5016567;28;20472;-87
2022/07/17 09:55:30;;;;;;;6.43;1.83;;;30.50;1.00;;;;;;5014741;28;20471;-86
2022/07/17 09:57:59;;;;;;;10.73;2.70;;;29.50;1.00;;;;;;5034321;28;20481;-86
2022/07/17 10:00:26;;;;;;;9.67;2.53;;;29.50;1.00;;;;;;5036580;28;20451;-86
2022/07/17 10:02:54;;;;;;;10.63;2.07;;;29.20;1.00;;;;;;5018766;28;20469;-85
2022/07/17 10:05:20;;;;;;;6.23;2.33;;;28.60;1.00;;;;;;5018540;28;20548;-87
2022/07/17 10:07:52;;;;;;;6.57;2.20;;;27.70;1.00;;;;;;5037486;28;20460;-86
2022/07/17 10:10:19;;;;;;;5.67;1.70;;;27.90;1.00;;;;;;5038723;28;20470;-86
2022/07/17 10:12:50;;;;;;;6.70;2.60;;;27.50;1.00;;;;;;5034578;28;20475;-86
2022/07/17 10:15:19;;;;;;;6.90;2.20;;;27.80;1.00;;;;;;5037119;28;20452;-86
2022/07/17 10:17:45;;;;;;;13.80;2.63;;;27.80;1.00;;;;;;5017030;28;20468;-87
2022/07/17 10:20:13;;;;;;;6.30;2.73;;;28.30;1.00;;;;;;5016427;28;20461;-86
2022/07/17 10:22:44;;;;;;;7.40;2.50;;;28.60;1.00;;;;;;5035482;28;20555;-86
2022/07/17 10:25:16;;;;;;;9.33;2.13;;;28.50;1.00;;;;;;5035273;28;20434;-86
2022/07/17 10:27:50;;;;;;;6.77;1.87;;;28.70;1.00;;;;;;5017477;28;20461;-86
2022/07/17 10:30:24;;;;;;;7.13;2.10;;;29.80;1.00;;;;;;5015991;28;20460;-86
2022/07/17 10:32:56;;;;;;;5.63;1.97;;;30.00;1.00;;;;;;5015016;28;20892;-86
2022/07/17 10:35:23;;;;;;;6.40;1.73;;;29.10;1.00;;;;;;5016419;28;20463;-86
2022/07/17 10:37:50;;;;;;;8.23;1.90;;;29.70;1.00;;;;;;5038798;28;20476;-87
2022/07/17 10:40:20;;;;;;;7.03;2.20;;;29.30;1.00;;;;;;5032614;28;20449;-86
2022/07/17 10:42:59;;;;;;;10.17;1.93;;;29.90;1.00;;;;;;5017370;28;20480;-86
2022/07/17 10:46:07;;;;;;;8.83;1.90;;;30.30;1.00;;;;;;5015996;28;20503;-86
2022/07/17 10:55:22;;;;;;;7.10;2.20;;;31.30;1.00;;;;;;5026887;28;20447;-86
2022/07/17 10:58:22;;;;;;;5.97;1.90;;;31.00;1.00;;;;;;5016347;28;20912;-87
2022/07/17 11:01:09;;;;;;;5.03;1.90;;;31.90;1.00;;;;;;5016138;28;20453;-87
2022/07/17 11:03:49;;;;;;;;;;;;;;;;;;;;;
2022/07/17 11:06:26;;;;;;;6.47;1.57;;;31.00;1.00;;;;;;5024382;28;20988;-87
2022/07/17 11:09:09;;;;;;;6.83;2.07;;;31.50;1.00;;;;;;5036217;28;20426;-86
2022/07/17 11:11:42;;;;;;;5.13;1.80;;;31.40;1.00;;;;;;5025397;28;20647;-87
2022/07/17 11:14:18;;;;;;;6.83;1.83;;;31.10;1.00;;;;;;5017201;28;20455;-88
2022/07/17 11:16:50;;;;;;;5.07;1.70;;;31.00;1.00;;;;;;5028731;28;20535;-86
2022/07/17 11:19:25;;;;;;;6.60;1.77;;;30.20;1.00;;;;;;5037686;28;20504;-86
2022/07/17 11:22:10;;;;;;;8.37;1.87;;;29.80;1.00;;;;;;5024642;28;20476;-86
2022/07/17 11:24:44;;;;;;;7.03;1.97;;;30.00;1.00;;;;;;5016062;28;20989;-86
2022/07/17 11:27:20;;;;;;;7.23;1.50;;;29.80;1.00;;;;;;5028755;28;20452;-87
2022/07/17 11:30:02;;;;;;;6.60;1.33;;;30.10;1.00;;;;;;5035958;28;20498;-86
2022/07/17 11:33:01;;;;;;;5.67;1.67;;;30.10;1.00;;;;;;5020867;28;20477;-88
2022/07/17 11:35:37;;;;;;;11.33;1.90;;;30.20;1.00;;;;;;5011253;28;20506;-89
2022/07/17 11:38:08;;;;;;;5.43;1.73;;;31.10;1.00;;;;;;5016685;28;20478;-88
2022/07/17 11:40:57;;;;;;;9.50;1.90;;;30.80;1.00;;;;;;5016115;28;20453;-87
2022/07/17 11:43:46;;;;;;;7.83;1.80;;;32.10;1.00;;;;;;5019756;28;20846;-85
2022/07/17 11:46:56;;;;;;;4.70;1.20;;;31.40;1.00;;;;;;5031701;28;21873;-86
2022/07/17 11:49:33;;;;;;;10.90;1.50;;;30.40;1.00;;;;;;5009575;28;20459;-85
2022/07/17 11:52:07;;;;;;;5.40;1.20;;;31.30;1.00;;;;;;5016851;28;20483;-86
2022/07/17 11:54:58;;;;;;;5.53;1.53;;;31.40;1.00;;;;;;5015456;28;20476;-84
2022/07/17 11:57:30;;;;;;;6.63;1.70;;;32.40;1.00;;;;;;5025479;28;20462;-85
2022/07/17 12:00:12;;;;;;;5.80;1.70;;;34.30;1.00;;;;;;5016283;28;20499;-86
2022/07/17 12:03:08;;;;;;;11.27;2.10;;;34.20;1.00;;;;;;5026528;28;20466;-86
2022/07/17 12:08:31;;;;;;;7.83;2.27;;;34.50;1.00;;;;;;5014755;28;20959;-85
2022/07/17 12:11:21;;;;;;;5.53;1.37;;;34.40;1.00;;;;;;5014406;28;20953;-85
2022/07/17 12:13:52;;;;;;;5.30;1.90;;;34.50;1.00;;;;;;5016280;28;20549;-82
2022/07/17 12:16:32;;;;;;;6.10;1.53;;;34.00;1.00;;;;;;5015089;28;20543;-83
2022/07/17 12:19:33;;;;;;;5.80;1.63;;;33.60;1.00;;;;;;5034275;28;20454;-83
2022/07/17 12:22:10;;;;;;;5.67;1.80;;;34.70;1.00;;;;;;5030276;28;21125;-83
2022/07/17 12:27:29;;;;;;;4.53;1.20;;;34.10;1.00;;;;;;5014724;28;20791;-83
2022/07/17 12:30:02;;;;;;;6.90;1.70;;;33.60;1.00;;;;;;5016050;28;20519;-83
2022/07/17 12:32:51;;;;;;;6.50;1.17;;;33.20;1.00;;;;;;5033760;28;20446;-83
2022/07/17 12:35:32;;;;;;;8.30;1.90;;;33.90;1.00;;;;;;5029810;28;20428;-84
2022/07/17 12:38:27;;;;;;;5.80;1.40;;;33.80;1.00;;;;;;5015467;28;20491;-84
2022/07/17 12:40:59;;;;;;;4.60;1.50;;;34.90;1.00;;;;;;5034443;28;20956;-85
2022/07/17 12:43:45;;;;;;;7.13;1.50;;;35.50;1.00;;;;;;5028406;28;20473;-84
2022/07/17 12:46:16;;;;;;;6.23;1.30;;;35.80;1.00;;;;;;5014419;28;20815;-84
2022/07/17 12:48:51;;;;;;;6.80;1.43;;;35.30;1.00;;;;;;5021985;28;20964;-84
2022/07/17 12:51:23;;;;;;;7.00;1.50;;;33.90;1.00;;;;;;5034559;28;20459;-84
2022/07/17 12:53:56;;;;;;;5.60;1.60;;;34.00;1.00;;;;;;5027026;28;20511;-87
2022/07/17 12:56:30;;;;;;;8.50;1.77;;;33.40;1.00;;;;;;5013725;28;20457;-83
2022/07/17 12:58:57;;;;;;;5.80;1.50;;;33.20;1.00;;;;;;5024577;28;20945;-83
2022/07/17 13:01:23;;;;;;;6.23;1.73;;;33.30;1.00;;;;;;5036515;28;20434;-83
2022/07/17 13:03:50;;;;;;;4.47;1.30;;;33.20;1.00;;;;;;5029250;28;20457;-83
2022/07/17 13:06:19;;;;;;;7.40;1.80;;;33.00;1.00;;;;;;5015764;28;20464;-83
2022/07/17 13:08:48;;;;;;;5.83;1.50;;;33.10;1.00;;;;;;5029416;28;20460;-83
2022/07/17 13:11:16;;;;;;;4.97;1.37;;;33.20;1.00;;;;;;5038919;28;20549;-83
2022/07/17 13:13:43;;;;;;;5.83;1.87;;;33.20;1.00;;;;;;5025770;28;20428;-83
2022/07/17 13:16:11;;;;;;;5.67;1.30;;;33.60;1.00;;;;;;5022768;28;20432;-83
2022/07/17 13:18:39;;;;;;;6.00;1.80;;;33.60;1.00;;;;;;5021803;28;20496;-83
2022/07/17 13:21:07;;;;;;;4.17;1.77;;;33.60;1.00;;;;;;5021138;28;20798;-83
2022/07/17 13:23:38;;;;;;;6.30;1.57;;;33.80;1.00;;;;;;5029805;28;20452;-83
2022/07/17 13:26:05;;;;;;;4.67;1.27;;;35.10;1.00;;;;;;5037539;28;20465;-85
2022/07/17 13:28:32;;;;;;;8.47;1.93;;;34.50;1.00;;;;;;5028360;28;20427;-83
2022/07/17 13:30:59;;;;;;;4.50;1.20;;;34.00;1.00;;;;;;5018383;28;20459;-83
2022/07/17 13:33:26;;;;;;;5.97;2.23;;;33.20;1.00;;;;;;5027455;28;20866;-83
2022/07/17 13:35:53;;;;;;;5.00;1.37;;;32.20;1.00;;;;;;5037364;28;20431;-82
2022/07/17 13:38:21;;;;;;;6.80;1.30;;;32.00;1.00;;;;;;5030201;28;20564;-82
2022/07/17 13:40:50;;;;;;;5.07;1.40;;;32.20;1.00;;;;;;5018090;28;20457;-83
2022/07/17 13:43:17;;;;;;;5.37;1.40;;;33.10;1.00;;;;;;5020767;28;20469;-83
2022/07/17 13:45:44;;;;;;;7.60;2.00;;;32.50;1.00;;;;;;5026671;28;20456;-82
2022/07/17 13:48:10;;;;;;;4.77;1.40;;;33.00;1.00;;;;;;5038400;28;20448;-83
2022/07/17 13:50:37;;;;;;;7.43;1.83;;;32.90;1.00;;;;;;5037749;28;20502;-83
2022/07/17 13:53:04;;;;;;;5.10;1.50;;;32.80;1.00;;;;;;5037439;28;20482;-83
2022/07/17 13:55:31;;;;;;;5.30;1.67;;;33.20;1.00;;;;;;5037904;28;20455;-84
2022/07/17 13:57:59;;;;;;;7.33;1.60;;;33.30;1.00;;;;;;5036370;28;20459;-84
2022/07/17 14:00:26;;;;;;;5.60;1.20;;;34.00;1.00;;;;;;5019913;28;20527;-83
2022/07/17 14:02:53;;;;;;;8.90;1.37;;;35.00;1.00;;;;;;5019342;28;20476;-85
2022/07/17 14:05:20;;;;;;;6.23;1.63;;;35.90;1.00;;;;;;5037966;28;20452;-83
2022/07/17 14:07:46;;;;;;;4.70;1.47;;;36.20;1.00;;;;;;5037585;28;20463;-83
2022/07/17 14:10:13;;;;;;;4.40;1.50;;;36.40;1.00;;;;;;5017585;28;20480;-86
2022/07/17 14:12:40;;;;;;;5.20;1.77;;;35.90;1.00;;;;;;5018251;28;20516;-83
2022/07/17 14:15:13;;;;;;;5.70;1.27;;;35.60;1.00;;;;;;5037318;28;20434;-83
2022/07/17 14:17:40;;;;;;;7.83;1.50;;;34.80;1.00;;;;;;5034461;28;20434;-86
2022/07/17 14:20:07;;;;;;;5.90;1.43;;;33.90;1.00;;;;;;5018794;28;20506;-83
2022/07/17 14:22:34;;;;;;;4.77;1.40;;;34.90;1.00;;;;;;5021077;28;21135;-83
2022/07/17 14:25:01;;;;;;;5.43;1.40;;;35.70;1.00;;;;;;5037806;28;20430;-83
2022/07/17 14:27:28;;;;;;;5.10;1.60;;;37.60;1.00;;;;;;5026055;28;20449;-83
2022/07/17 14:29:54;;;;;;;5.50;1.77;;;37.10;1.00;;;;;;5017328;28;20466;-84
2022/07/17 14:32:23;;;;;;;6.90;2.03;;;36.90;1.00;;;;;;5030031;28;20446;-84
2022/07/17 14:34:49;;;;;;;7.60;2.00;;;36.30;1.00;;;;;;5033643;28;20448;-84
2022/07/17 14:37:16;;;;;;;4.50;1.20;;;34.30;1.00;;;;;;5033446;28;20454;-83
2022/07/17 14:39:43;;;;;;;6.83;1.67;;;33.40;1.00;;;;;;5030431;28;20828;-85
2022/07/17 14:42:10;;;;;;;5.33;1.53;;;33.60;1.00;;;;;;5012734;28;20506;-84
2022/07/17 14:44:37;;;;;;;9.27;1.80;;;33.20;1.00;;;;;;5012776;28;20459;-84
2022/07/17 14:47:03;;;;;;;6.37;1.70;;;33.40;1.00;;;;;;5013279;28;20452;-84
2022/07/17 14:49:31;;;;;;;6.33;1.47;;;32.80;1.00;;;;;;5014303;28;20448;-83
2022/07/17 14:51:58;;;;;;;5.93;1.97;;;31.90;1.00;;;;;;5013080;28;20481;-83
2022/07/17 14:54:27;;;;;;;5.67;1.80;;;32.20;1.00;;;;;;5012330;28;20468;-83
2022/07/17 14:56:53;;;;;;;4.90;1.70;;;32.90;1.00;;;;;;5023987;28;20944;-83
2022/07/17 14:59:20;;;;;;;5.57;1.77;;;33.20;1.00;;;;;;5025316;28;20452;-84
2022/07/17 15:01:47;;;;;;;7.23;1.90;;;34.40;1.00;;;;;;5032112;28;20480;-84
2022/07/17 15:04:14;;;;;;;6.93;1.70;;;34.00;1.00;;;;;;5031698;28;20448;-84
2022/07/17 15:06:42;;;;;;;7.23;1.90;;;35.00;1.00;;;;;;5032067;28;20834;-84
2022/07/17 15:09:09;;;;;;;5.70;1.83;;;34.60;1.00;;;;;;5013922;28;20479;-87
2022/07/17 15:11:35;;;;;;;5.97;1.80;;;34.90;1.00;;;;;;5012183;28;20975;-84
2022/07/17 15:14:02;;;;;;;5.43;1.60;;;35.10;1.00;;;;;;5028797;28;20459;-83
2022/07/17 15:16:29;;;;;;;6.13;1.50;;;36.30;1.00;;;;;;5034140;28;20456;-84
2022/07/17 15:18:56;;;;;;;5.70;1.40;;;37.30;1.00;;;;;;5013627;28;20419;-83
2022/07/17 15:21:22;;;;;;;6.80;1.70;;;36.80;1.00;;;;;;5014826;28;20475;-84
2022/07/17 15:23:50;;;;;;;5.40;1.57;;;36.60;1.00;;;;;;5033819;28;20456;-84
2022/07/17 15:26:17;;;;;;;5.63;1.90;;;37.00;1.00;;;;;;5035957;28;20451;-83
2022/07/17 15:28:44;;;;;;;5.50;1.90;;;36.80;1.00;;;;;;5019210;28;20469;-85
2022/07/17 15:31:10;;;;;;;6.57;1.90;;;37.40;1.00;;;;;;5024862;28;20427;-84
2022/07/17 15:33:41;;;;;;;6.90;1.90;;;37.50;1.00;;;;;;5037325;28;20427;-85
2022/07/17 15:36:08;;;;;;;5.40;1.50;;;37.50;1.00;;;;;;5028824;28;20431;-86
2022/07/17 15:38:35;;;;;;;5.17;1.90;;;37.50;1.00;;;;;;5015796;28;20428;-83
2022/07/17 15:41:04;;;;;;;12.77;2.07;;;36.40;1.00;;;;;;5021089;28;20475;-83
2022/07/17 15:43:31;;;;;;;5.27;1.50;;;34.50;1.00;;;;;;5035095;28;20457;-85
2022/07/17 15:46:02;;;;;;;5.27;2.00;;;34.50;1.00;;;;;;5024433;28;20427;-83
2022/07/17 15:48:28;;;;;;;5.03;1.67;;;34.20;1.00;;;;;;5034749;28;20543;-83
2022/07/17 15:50:55;;;;;;;4.47;1.53;;;34.60;1.00;;;;;;5019305;28;20803;-84
2022/07/17 15:53:22;;;;;;;8.73;2.30;;;34.00;1.00;;;;;;5016734;28;21012;-84
2022/07/17 15:55:50;;;;;;;7.10;2.53;;;34.20;1.00;;;;;;5034625;28;20455;-84
2022/07/17 15:58:18;;;;;;;8.20;2.93;;;35.00;1.00;;;;;;5020681;28;20435;-84
2022/07/17 16:00:45;;;;;;;5.97;2.37;;;33.90;1.00;;;;;;5029292;28;20431;-84
2022/07/17 16:03:12;;;;;;;8.43;2.33;;;33.30;1.00;;;;;;5014826;28;20984;-86
2022/07/17 16:05:38;;;;;;;8.17;2.17;;;33.20;1.00;;;;;;5014829;28;20480;-83
2022/07/17 16:08:05;;;;;;;6.90;1.90;;;34.30;1.00;;;;;;5016346;28;20438;-83
2022/07/17 16:10:33;;;;;;;5.43;1.80;;;34.40;1.00;;;;;;5017899;28;20485;-83
2022/07/17 16:13:00;;;;;;;6.13;1.87;;;34.60;1.00;;;;;;5035535;28;20765;-83
2022/07/17 16:15:40;;;;;;;6.77;2.13;;;33.50;1.00;;;;;;5035303;28;20452;-86
2022/07/17 16:18:07;;;;;;;6.70;2.20;;;33.70;1.00;;;;;;5015451;28;20489;-86
2022/07/17 16:20:33;;;;;;;9.70;2.40;;;34.30;1.00;;;;;;5015011;28;20954;-85
2022/07/17 16:23:00;;;;;;;7.37;2.67;;;34.90;1.00;;;;;;5019363;28;20586;-84
2022/07/17 16:25:27;;;;;;;7.80;2.13;;;35.00;1.00;;;;;;5022851;28;20435;-85
2022/07/17 16:27:55;;;;;;;7.13;2.15;;;34.30;1.00;;;;;;5028284;28;20443;-84
2022/07/17 16:30:23;;;;;;;7.87;2.20;;;34.40;1.00;;;;;;5019118;28;20222;-85
2022/07/17 16:32:51;;;;;;;9.30;2.20;;;35.20;1.00;;;;;;5024511;28;20447;-83
2022/07/17 16:35:18;;;;;;;6.57;1.70;;;35.50;1.00;;;;;;5035724;28;20979;-84
2022/07/17 16:37:46;;;;;;;10.57;2.30;;;35.30;1.00;;;;;;5029194;28;20453;-83
2022/07/17 16:40:17;;;;;;;14.20;2.60;;;35.80;1.00;;;;;;5017712;28;20463;-83
2022/07/17 16:42:44;;;;;;;7.20;2.00;;;35.00;1.00;;;;;;5025796;28;20501;-83
2022/07/17 16:45:11;;;;;;;9.30;2.07;;;34.00;1.00;;;;;;5036908;28;21048;-83
2022/07/17 16:47:40;;;;;;;4.73;1.67;;;33.90;1.00;;;;;;5028848;28;20965;-84
2022/07/17 16:50:09;;;;;;;5.30;1.97;;;34.40;1.00;;;;;;5015013;28;20463;-85
2022/07/17 16:52:36;;;;;;;8.03;2.37;;;33.90;1.00;;;;;;5021540;28;20447;-83
2022/07/17 16:55:30;;;;;;;7.50;2.10;;;33.90;1.00;;;;;;5018871;28;20613;-85
2022/07/17 16:57:57;;;;;;;8.30;2.10;;;33.00;1.00;;;;;;5011331;28;20516;-81
2022/07/17 17:00:24;;;;;;;9.47;2.37;;;32.10;1.00;;;;;;5026991;28;20441;-83
2022/07/17 17:02:54;;;;;;;6.80;2.57;;;31.70;1.00;;;;;;5018832;28;20461;-84
2022/07/17 17:05:22;;;;;;;8.77;2.30;;;32.00;1.00;;;;;;5028867;28;20782;-80
2022/07/17 17:07:49;;;;;;;9.40;2.67;;;32.50;1.00;;;;;;5020717;28;20458;-79
2022/07/17 17:10:16;;;;;;;5.80;2.00;;;32.70;1.00;;;;;;5025798;28;20570;-80
2022/07/17 17:12:44;;;;;;;6.30;2.07;;;33.30;1.00;;;;;;5034117;28;20476;-83
2022/07/17 17:15:33;;;;;;;8.20;1.93;;;32.90;1.00;;;;;;5027180;28;20455;-84
2022/07/17 17:18:00;;;;;;;6.40;2.60;;;32.20;1.00;;;;;;5031769;28;20426;-85
2022/07/17 17:20:28;;;;;;;8.20;2.80;;;32.00;1.00;;;;;;5013008;28;20458;-85
2022/07/17 17:22:55;;;;;;;10.00;2.40;;;32.50;1.00;;;;;;5012694;28;20851;-85
2022/07/17 17:25:22;;;;;;;7.13;2.47;;;33.70;1.00;;;;;;5013334;28;20449;-85
2022/07/17 17:27:49;;;;;;;7.93;2.13;;;33.60;1.00;;;;;;5012758;28;20441;-87
2022/07/17 17:30:16;;;;;;;5.10;1.80;;;33.50;1.00;;;;;;5029210;28;20471;-84
2022/07/17 17:32:45;;;;;;;5.40;2.20;;;33.30;1.00;;;;;;5018607;28;20929;-84
2022/07/17 17:35:11;;;;;;;6.47;2.07;;;33.70;1.00;;;;;;5017719;28;20498;-84
2022/07/17 17:37:39;;;;;;;8.00;2.23;;;32.40;1.00;;;;;;5025384;28;20427;-84
2022/07/17 17:40:08;;;;;;;8.57;2.10;;;31.40;1.00;;;;;;5026270;28;20999;-84
2022/07/17 17:42:35;;;;;;;4.57;1.40;;;31.50;1.00;;;;;;5019478;28;20837;-84
2022/07/17 17:45:01;;;;;;;8.90;2.10;;;32.30;1.00;;;;;;5024842;28;20452;-83
2022/07/17 17:47:28;;;;;;;7.60;1.70;;;32.70;1.00;;;;;;5020908;28;20427;-84
2022/07/17 17:49:55;;;;;;;7.17;2.20;;;32.20;1.00;;;;;;5015432;28;20469;-83
2022/07/17 17:52:22;;;;;;;5.10;1.80;;;33.00;1.00;;;;;;5021895;28;21015;-83
2022/07/17 17:54:50;;;;;;;5.50;1.60;;;33.20;1.00;;;;;;5013481;28;20461;-84
2022/07/17 17:57:17;;;;;;;7.40;1.90;;;34.00;1.00;;;;;;5027543;28;20462;-80
2022/07/17 17:59:43;;;;;;;9.40;2.03;;;34.00;1.00;;;;;;5027623;28;20835;-80
2022/07/17 18:02:10;;;;;;;4.90;1.30;;;34.20;1.00;;;;;;5032429;28;20447;-80
2022/07/17 18:04:37;;;;;;;6.63;1.90;;;34.60;1.00;;;;;;5031716;28;21006;-80
2022/07/17 18:07:04;;;;;;;7.30;1.77;;;34.90;1.00;;;;;;5032103;28;20468;-80
2022/07/17 18:09:31;;;;;;;8.90;1.90;;;35.30;1.00;;;;;;5013476;28;20464;-80
2022/07/17 18:11:59;;;;;;;6.53;2.07;;;35.00;1.00;;;;;;5025273;28;20858;-80
2022/07/17 18:14:25;;;;;;;9.13;1.80;;;34.50;1.00;;;;;;5032593;28;20455;-80
2022/07/17 18:16:52;;;;;;;5.67;1.73;;;33.90;1.00;;;;;;5020412;28;20449;-80
2022/07/17 18:19:19;;;;;;;5.00;1.50;;;33.80;1.00;;;;;;5026775;28;20455;-79
2022/07/17 18:21:46;;;;;;;4.37;1.50;;;33.80;1.00;;;;;;5022815;28;20478;-80
2022/07/17 18:24:13;;;;;;;4.60;1.70;;;33.40;1.00;;;;;;5019526;28;20823;-81
2022/07/17 18:26:40;;;;;;;6.10;2.13;;;33.90;1.00;;;;;;5031457;28;20456;-79
2022/07/17 18:29:08;;;;;;;5.70;1.50;;;34.10;1.00;;;;;;5028316;28;20428;-79
2022/07/17 18:31:35;;;;;;;7.77;1.80;;;34.10;1.00;;;;;;5011899;28;20565;-80
2022/07/17 18:34:01;;;;;;;5.07;1.77;;;34.00;1.00;;;;;;5014759;28;20461;-80
2022/07/17 18:36:28;;;;;;;31.57;4.57;;;33.80;1.00;;;;;;5032707;28;20431;-80
2022/07/17 18:38:55;;;;;;;75.63;7.20;;;33.40;1.00;;;;;;5030446;28;20470;-79
2022/07/17 18:41:22;;;;;;;80.83;7.33;;;33.00;1.00;;;;;;5012220;28;21001;-80
2022/07/17 18:43:48;;;;;;;86.23;7.37;;;32.60;1.00;;;;;;5011775;28;20432;-79